sensor_id;sensor_type;location;lat;lon;timestamp;pressure;altitude;pressure_sealevel;temperature;humidity
68941;BME280;55982;51.476;7.552;2023-05-21T00:02:15;99972.06;;;11.73;100.00
68941;BME280;55982;51.476;7.552;2023-05-21T00:04:41;99958.16;;;11.71;100.00
68941;BME280;55982;51.476;7.552;2023-05-21T00:07:07;99960.91;;;11.68;100.00
68941;BME280;55982;51.476;7.552;2023-05-21T00:09:35;99956.56;;;11.67;100.00
68941;BME280;55982;51.476;7.552;2023-05-21T00:12:06;99960.09;;;11.66;100.00
68941;BME280;55982;51.476;7.552;2023-05-21T00:14:31;99962.66;;;11.67;100.00
68941;BME280;55982;51.476;7.552;2023-05-21T00:16:57;99954.75;;;11.69;100.00
68941;BME280;55982;51.476;7.552;2023-05-21T00:19:22;99952.19;;;11.67;100.00
68941;BME280;55982;51.476;7.552;2023-05-21T00:21:47;99958.34;;;11.65;100.00
68941;BME280;55982;51.476;7.552;2023-05-21T00:24:13;99954.91;;;11.63;100.00
68941;BME280;55982;51.476;7.552;2023-05-21T00:26:39;99942.75;;;11.62;100.00
68941;BME280;55982;51.476;7.552;2023-05-21T00:29:04;99951.63;;;11.58;100.00
68941;BME280;55982;51.476;7.552;2023-05-21T00:31:29;99939.41;;;11.57;100.00
68941;BME280;55982;51.476;7.552;2023-05-21T00:33:56;99939.88;;;11.45;100.00
68941;BME280;55982;51.476;7.552;2023-05-21T00:36:21;99932.50;;;11.30;100.00
68941;BME280;55982;51.476;7.552;2023-05-21T00:38:49;99939.06;;;11.17;100.00
68941;BME280;55982;51.476;7.552;2023-05-21T00:41:15;99944.63;;;11.07;100.00
68941;BME280;55982;51.476;7.552;2023-05-21T00:43:41;99932.66;;;11.00;100.00
68941;BME280;55982;51.476;7.552;2023-05-21T00:46:12;99936.28;;;10.96;100.00
68941;BME280;55982;51.476;7.552;2023-05-21T00:48:41;99936.34;;;10.93;100.00
68941;BME280;55982;51.476;7.552;2023-05-21T00:51:08;99931.03;;;10.96;100.00
68941;BME280;55982;51.476;7.552;2023-05-21T00:53:34;99929.50;;;10.91;100.00
68941;BME280;55982;51.476;7.552;2023-05-21T00:56:00;99936.34;;;10.93;100.00
68941;BME280;55982;51.476;7.552;2023-05-21T00:58:26;99938.16;;;10.93;100.00
68941;BME280;55982;51.476;7.552;2023-05-21T01:00:52;99932.34;;;11.10;100.00
68941;BME280;55982;51.476;7.552;2023-05-21T01:05:51;99931.28;;;11.15;100.00
68941;BME280;55982;51.476;7.552;2023-05-21T01:08:18;99928.72;;;11.14;100.00
68941;BME280;55982;51.476;7.552;2023-05-21T01:10:47;99928.47;;;11.21;100.00
68941;BME280;55982;51.476;7.552;2023-05-21T01:13:13;99925.09;;;11.18;100.00
68941;BME280;55982;51.476;7.552;2023-05-21T01:15:41;99926.25;;;11.09;100.00
68941;BME280;55982;51.476;7.552;2023-05-21T01:18:07;99925.69;;;10.99;100.00
68941;BME280;55982;51.476;7.552;2023-05-21T01:20:33;99918.75;;;10.98;100.00
68941;BME280;55982;51.476;7.552;2023-05-21T01:22:59;99917.03;;;10.97;100.00
68941;BME280;55982;51.476;7.552;2023-05-21T01:25:24;99924.06;;;10.95;100.00
68941;BME280;55982;51.476;7.552;2023-05-21T01:27:50;99924.06;;;10.95;100.00
68941;BME280;55982;51.476;7.552;2023-05-21T01:30:17;99921.56;;;10.92;100.00
68941;BME280;55982;51.476;7.552;2023-05-21T01:32:58;99914.72;;;10.88;100.00
68941;BME280;55982;51.476;7.552;2023-05-21T01:35:28;99909.25;;;10.96;100.00
68941;BME280;55982;51.476;7.552;2023-05-21T01:38:13;99917.91;;;10.98;100.00
68941;BME280;55982;51.476;7.552;2023-05-21T01:40:52;99909.91;;;11.02;100.00
68941;BME280;55982;51.476;7.552;2023-05-21T01:43:19;99911.28;;;11.13;100.00
68941;BME280;55982;51.476;7.552;2023-05-21T01:45:46;99914.69;;;11.15;100.00
68941;BME280;55982;51.476;7.552;2023-05-21T01:48:13;99917.25;;;11.16;100.00
68941;BME280;55982;51.476;7.552;2023-05-21T01:50:45;99910.22;;;11.18;100.00
68941;BME280;55982;51.476;7.552;2023-05-21T01:53:11;99905.47;;;11.04;100.00
68941;BME280;55982;51.476;7.552;2023-05-21T01:55:36;99912.72;;;10.96;100.00
68941;BME280;55982;51.476;7.552;2023-05-21T01:58:06;99906.88;;;10.88;100.00
68941;BME280;55982;51.476;7.552;2023-05-21T02:00:32;99899.28;;;10.81;100.00
68941;BME280;55982;51.476;7.552;2023-05-21T02:02:59;99903.97;;;10.71;100.00
68941;BME280;55982;51.476;7.552;2023-05-21T02:05:24;99903.16;;;10.69;100.00
68941;BME280;55982;51.476;7.552;2023-05-21T02:07:51;99900.34;;;10.75;100.00
68941;BME280;55982;51.476;7.552;2023-05-21T02:10:17;99899.53;;;10.73;100.00
68941;BME280;55982;51.476;7.552;2023-05-21T02:12:43;99900.47;;;10.71;100.00
68941;BME280;55982;51.476;7.552;2023-05-21T02:15:10;99898.59;;;10.74;100.00
68941;BME280;55982;51.476;7.552;2023-05-21T02:17:35;99898.56;;;10.76;100.00
68941;BME280;55982;51.476;7.552;2023-05-21T02:20:03;99895.00;;;10.78;100.00
68941;BME280;55982;51.476;7.552;2023-05-21T02:22:39;99894.31;;;10.73;100.00
68941;BME280;55982;51.476;7.552;2023-05-21T02:25:06;99895.31;;;10.69;100.00
68941;BME280;55982;51.476;7.552;2023-05-21T02:27:32;99901.53;;;10.65;100.00
68941;BME280;55982;51.476;7.552;2023-05-21T02:29:59;99896.19;;;10.68;100.00
68941;BME280;55982;51.476;7.552;2023-05-21T02:32:25;99895.31;;;10.69;100.00
68941;BME280;55982;51.476;7.552;2023-05-21T02:34:50;99902.22;;;10.70;100.00
68941;BME280;55982;51.476;7.552;2023-05-21T02:37:17;99897.09;;;10.67;100.00
68941;BME280;55982;51.476;7.552;2023-05-21T02:39:43;99894.19;;;10.50;100.00
68941;BME280;55982;51.476;7.552;2023-05-21T02:42:08;99885.59;;;10.45;100.00
68941;BME280;55982;51.476;7.552;2023-05-21T02:44:34;99892.31;;;10.54;100.00
68941;BME280;55982;51.476;7.552;2023-05-21T02:46:59;99901.97;;;10.52;100.00
68941;BME280;55982;51.476;7.552;2023-05-21T02:49:25;99890.56;;;10.54;100.00
68941;BME280;55982;51.476;7.552;2023-05-21T02:51:50;99892.25;;;10.55;100.00
68941;BME280;55982;51.476;7.552;2023-05-21T02:54:15;99895.78;;;10.54;100.00
68941;BME280;55982;51.476;7.552;2023-05-21T02:56:41;99887.03;;;10.55;100.00
68941;BME280;55982;51.476;7.552;2023-05-21T02:59:06;99898.25;;;10.59;100.00
68941;BME280;55982;51.476;7.552;2023-05-21T03:01:31;99890.38;;;10.60;100.00
68941;BME280;55982;51.476;7.552;2023-05-21T03:03:57;99886.66;;;10.67;100.00
68941;BME280;55982;51.476;7.552;2023-05-21T03:06:22;99894.75;;;10.60;100.00
68941;BME280;55982;51.476;7.552;2023-05-21T03:08:47;99885.13;;;10.60;100.00
68941;BME280;55982;51.476;7.552;2023-05-21T03:11:13;99886.84;;;10.61;100.00
68941;BME280;55982;51.476;7.552;2023-05-21T03:13:38;99887.59;;;10.65;100.00
68941;BME280;55982;51.476;7.552;2023-05-21T03:16:04;99884.91;;;10.66;100.00
68941;BME280;55982;51.476;7.552;2023-05-21T03:18:29;99885.72;;;10.68;100.00
68941;BME280;55982;51.476;7.552;2023-05-21T03:20:55;99884.63;;;10.75;100.00
68941;BME280;55982;51.476;7.552;2023-05-21T03:23:23;99886.44;;;10.73;100.00
68941;BME280;55982;51.476;7.552;2023-05-21T03:25:48;99884.63;;;10.75;100.00
68941;BME280;55982;51.476;7.552;2023-05-21T03:28:15;99882.22;;;10.69;100.00
68941;BME280;55982;51.476;7.552;2023-05-21T03:30:42;99884.72;;;10.72;100.00
68941;BME280;55982;51.476;7.552;2023-05-21T03:33:14;99884.63;;;10.75;100.00
68941;BME280;55982;51.476;7.552;2023-05-21T03:35:40;99883.78;;;10.75;100.00
68941;BME280;55982;51.476;7.552;2023-05-21T03:38:05;99879.59;;;10.69;100.00
68941;BME280;55982;51.476;7.552;2023-05-21T03:40:31;99885.03;;;10.63;100.00
68941;BME280;55982;51.476;7.552;2023-05-21T03:42:56;99883.09;;;10.68;100.00
68941;BME280;55982;51.476;7.552;2023-05-21T03:45:22;99882.41;;;10.63;100.00
68941;BME280;55982;51.476;7.552;2023-05-21T03:47:47;99881.59;;;10.61;100.00
68941;BME280;55982;51.476;7.552;2023-05-21T03:50:13;99878.19;;;10.59;100.00
68941;BME280;55982;51.476;7.552;2023-05-21T03:52:39;99883.09;;;10.68;100.00
68941;BME280;55982;51.476;7.552;2023-05-21T03:55:05;99886.53;;;10.70;100.00
68941;BME280;55982;51.476;7.552;2023-05-21T03:57:31;99882.28;;;10.68;100.00
68941;BME280;55982;51.476;7.552;2023-05-21T03:59:56;99877.28;;;10.60;100.00
68941;BME280;55982;51.476;7.552;2023-05-21T04:02:25;99885.22;;;10.57;100.00
68941;BME280;55982;51.476;7.552;2023-05-21T04:04:51;99887.03;;;10.55;100.00
68941;BME280;55982;51.476;7.552;2023-05-21T04:07:18;99882.53;;;10.60;100.00
68941;BME280;55982;51.476;7.552;2023-05-21T04:09:44;99888.44;;;10.65;100.00
68941;BME280;55982;51.476;7.552;2023-05-21T04:12:10;99887.28;;;10.74;100.00
68941;BME280;55982;51.476;7.552;2023-05-21T04:14:36;99896.59;;;10.82;100.00
68941;BME280;55982;51.476;7.552;2023-05-21T04:17:04;99891.06;;;10.91;100.00
68941;BME280;55982;51.476;7.552;2023-05-21T04:19:30;99890.09;;;10.94;100.00
68941;BME280;55982;51.476;7.552;2023-05-21T04:21:55;99884.00;;;10.93;100.00
68941;BME280;55982;51.476;7.552;2023-05-21T04:24:22;99897.50;;;11.07;100.00
68941;BME280;55982;51.476;7.552;2023-05-21T04:26:48;99892.81;;;11.17;100.00
68941;BME280;55982;51.476;7.552;2023-05-21T04:29:14;99892.47;;;11.26;100.00
68941;BME280;55982;51.476;7.552;2023-05-21T04:31:42;99896.66;;;11.32;100.00
68941;BME280;55982;51.476;7.552;2023-05-21T04:34:07;99893.22;;;11.30;100.00
68941;BME280;55982;51.476;7.552;2023-05-21T04:36:33;99893.13;;;11.33;100.00
68941;BME280;55982;51.476;7.552;2023-05-21T04:38:59;99887.31;;;11.25;100.00
68941;BME280;55982;51.476;7.552;2023-05-21T04:41:25;99889.38;;;11.40;100.00
68941;BME280;55982;51.476;7.552;2023-05-21T04:43:50;99893.59;;;11.44;100.00
68941;BME280;55982;51.476;7.552;2023-05-21T04:46:20;99888.84;;;11.55;100.00
68941;BME280;55982;51.476;7.552;2023-05-21T04:48:53;99891.97;;;11.66;100.00
68941;BME280;55982;51.476;7.552;2023-05-21T04:51:21;99894.41;;;11.70;100.00
68941;BME280;55982;51.476;7.552;2023-05-21T04:53:51;99889.69;;;11.80;100.00
68941;BME280;55982;51.476;7.552;2023-05-21T04:56:18;99889.16;;;11.70;100.00
68941;BME280;55982;51.476;7.552;2023-05-21T04:58:44;99873.72;;;11.86;100.00
68941;BME280;55982;51.476;7.552;2023-05-21T05:01:12;99881.81;;;12.03;100.00
68941;BME280;55982;51.476;7.552;2023-05-21T05:03:37;99878.28;;;12.04;100.00
68941;BME280;55982;51.476;7.552;2023-05-21T05:06:04;99879.19;;;12.03;100.00
68941;BME280;55982;51.476;7.552;2023-05-21T05:08:29;99874.94;;;12.01;100.00
68941;BME280;55982;51.476;7.552;2023-05-21T05:10:55;99871.09;;;12.09;100.00
68941;BME280;55982;51.476;7.552;2023-05-21T05:13:23;99878.94;;;12.32;100.00
68941;BME280;55982;51.476;7.552;2023-05-21T05:15:48;99875.03;;;12.42;100.00
68941;BME280;55982;51.476;7.552;2023-05-21T05:18:13;99872.97;;;12.50;100.00
68941;BME280;55982;51.476;7.552;2023-05-21T05:20:40;99869.53;;;12.48;100.00
68941;BME280;55982;51.476;7.552;2023-05-21T05:23:06;99867.44;;;12.56;100.00
68941;BME280;55982;51.476;7.552;2023-05-21T05:25:31;99861.22;;;12.80;100.00
68941;BME280;55982;51.476;7.552;2023-05-21T05:27:57;99861.06;;;12.83;100.00
68941;BME280;55982;51.476;7.552;2023-05-21T05:30:23;99855.81;;;12.83;100.00
68941;BME280;55982;51.476;7.552;2023-05-21T05:32:48;99866.38;;;12.62;100.00
68941;BME280;55982;51.476;7.552;2023-05-21T05:35:14;99869.50;;;12.70;100.00
68941;BME280;55982;51.476;7.552;2023-05-21T05:37:39;99868.94;;;12.83;100.00
68941;BME280;55982;51.476;7.552;2023-05-21T05:40:06;99871.06;;;12.96;100.00
68941;BME280;55982;51.476;7.552;2023-05-21T05:42:32;99869.41;;;13.15;100.00
68941;BME280;55982;51.476;7.552;2023-05-21T05:44:58;99861.56;;;13.33;100.00
68941;BME280;55982;51.476;7.552;2023-05-21T05:47:23;99863.69;;;13.25;100.00
68941;BME280;55982;51.476;7.552;2023-05-21T05:49:52;99850.16;;;13.34;100.00
68941;BME280;55982;51.476;7.552;2023-05-21T05:52:17;99852.06;;;13.31;100.00
68941;BME280;55982;51.476;7.552;2023-05-21T05:54:43;99852.59;;;13.39;100.00
68941;BME280;55982;51.476;7.552;2023-05-21T05:57:09;99856.75;;;13.43;100.00
68941;BME280;55982;51.476;7.552;2023-05-21T05:59:34;99850.41;;;13.48;100.00
68941;BME280;55982;51.476;7.552;2023-05-21T06:02:00;99865.31;;;13.48;100.00
68941;BME280;55982;51.476;7.552;2023-05-21T06:04:25;99854.63;;;13.32;100.00
68941;BME280;55982;51.476;7.552;2023-05-21T06:06:55;99850.16;;;13.73;100.00
68941;BME280;55982;51.476;7.552;2023-05-21T06:09:24;99858.25;;;13.87;100.00
68941;BME280;55982;51.476;7.552;2023-05-21T06:11:49;99858.28;;;14.06;100.00
68941;BME280;55982;51.476;7.552;2023-05-21T06:14:15;99858.00;;;14.12;100.00
68941;BME280;55982;51.476;7.552;2023-05-21T06:16:41;99854.44;;;13.94;100.00
68941;BME280;55982;51.476;7.552;2023-05-21T06:19:06;99858.25;;;14.24;100.00
68941;BME280;55982;51.476;7.552;2023-05-21T06:21:32;99851.59;;;14.17;100.00
68941;BME280;55982;51.476;7.552;2023-05-21T06:23:58;99855.38;;;14.30;100.00
68941;BME280;55982;51.476;7.552;2023-05-21T06:26:24;99854.16;;;14.00;100.00
68941;BME280;55982;51.476;7.552;2023-05-21T06:28:50;99855.06;;;14.36;100.00
68941;BME280;55982;51.476;7.552;2023-05-21T06:31:16;99848.78;;;14.39;100.00
68941;BME280;55982;51.476;7.552;2023-05-21T06:33:42;99850.84;;;14.51;100.00
68941;BME280;55982;51.476;7.552;2023-05-21T06:36:07;99852.28;;;14.58;100.00
68941;BME280;55982;51.476;7.552;2023-05-21T06:38:33;99850.34;;;14.79;100.00
68941;BME280;55982;51.476;7.552;2023-05-21T06:41:00;99851.44;;;14.92;100.00
68941;BME280;55982;51.476;7.552;2023-05-21T06:43:28;99844.13;;;14.62;100.00
68941;BME280;55982;51.476;7.552;2023-05-21T06:45:53;99842.38;;;14.80;100.00
68941;BME280;55982;51.476;7.552;2023-05-21T06:48:19;99832.69;;;14.98;100.00
68941;BME280;55982;51.476;7.552;2023-05-21T06:50:45;99834.16;;;15.20;100.00
68941;BME280;55982;51.476;7.552;2023-05-21T06:53:11;99839.66;;;14.99;100.00
68941;BME280;55982;51.476;7.552;2023-05-21T06:55:40;99842.28;;;14.99;100.00
68941;BME280;55982;51.476;7.552;2023-05-21T06:58:09;99840.44;;;15.01;100.00
68941;BME280;55982;51.476;7.552;2023-05-21T07:00:35;99838.03;;;14.96;100.00
68941;BME280;55982;51.476;7.552;2023-05-21T07:03:01;99825.97;;;14.92;100.00
68941;BME280;55982;51.476;7.552;2023-05-21T07:05:26;99817.50;;;15.03;100.00
68941;BME280;55982;51.476;7.552;2023-05-21T07:07:52;99823.63;;;15.03;100.00
68941;BME280;55982;51.476;7.552;2023-05-21T07:10:17;99818.72;;;15.13;100.00
68941;BME280;55982;51.476;7.552;2023-05-21T07:12:42;99823.50;;;15.22;100.00
68941;BME280;55982;51.476;7.552;2023-05-21T07:15:08;99822.75;;;15.03;100.00
68941;BME280;55982;51.476;7.552;2023-05-21T07:17:34;99823.50;;;15.22;100.00
68941;BME280;55982;51.476;7.552;2023-05-21T07:19:59;99826.28;;;15.36;100.00
68941;BME280;55982;51.476;7.552;2023-05-21T07:22:25;99813.31;;;15.66;100.00
68941;BME280;55982;51.476;7.552;2023-05-21T07:24:50;99816.06;;;15.95;100.00
68941;BME280;55982;51.476;7.552;2023-05-21T07:27:16;99805.13;;;15.70;100.00
68941;BME280;55982;51.476;7.552;2023-05-21T07:29:41;99827.00;;;15.72;100.00
68941;BME280;55982;51.476;7.552;2023-05-21T07:32:06;99820.81;;;16.04;100.00
68941;BME280;55982;51.476;7.552;2023-05-21T07:34:32;99825.78;;;15.62;100.00
68941;BME280;55982;51.476;7.552;2023-05-21T07:36:57;99830.56;;;16.19;100.00
68941;BME280;55982;51.476;7.552;2023-05-21T07:39:22;99824.06;;;16.25;100.00
68941;BME280;55982;51.476;7.552;2023-05-21T07:41:48;99825.66;;;16.43;100.00
68941;BME280;55982;51.476;7.552;2023-05-21T07:44:13;99823.59;;;15.70;100.00
68941;BME280;55982;51.476;7.552;2023-05-21T07:46:39;99826.09;;;15.73;100.00
68941;BME280;55982;51.476;7.552;2023-05-21T07:49:04;99831.41;;;15.72;100.00
68941;BME280;55982;51.476;7.552;2023-05-21T07:51:30;99842.28;;;16.29;100.00
68941;BME280;55982;51.476;7.552;2023-05-21T07:53:55;99836.66;;;16.35;100.00
68941;BME280;55982;51.476;7.552;2023-05-21T07:56:21;99830.84;;;16.44;100.00
68941;BME280;55982;51.476;7.552;2023-05-21T07:58:47;99827.91;;;17.10;100.00
68941;BME280;55982;51.476;7.552;2023-05-21T08:01:12;99829.75;;;16.94;100.00
68941;BME280;55982;51.476;7.552;2023-05-21T08:03:38;99828.41;;;16.87;100.00
68941;BME280;55982;51.476;7.552;2023-05-21T08:06:03;99835.22;;;16.91;100.00
68941;BME280;55982;51.476;7.552;2023-05-21T08:08:28;99828.78;;;16.81;100.00
68941;BME280;55982;51.476;7.552;2023-05-21T08:10:54;99834.44;;;16.89;100.00
68941;BME280;55982;51.476;7.552;2023-05-21T08:13:20;99835.22;;;16.91;100.00
68941;BME280;55982;51.476;7.552;2023-05-21T08:15:46;99828.38;;;17.60;100.00
68941;BME280;55982;51.476;7.552;2023-05-21T08:18:11;99831.03;;;17.74;100.00
68941;BME280;55982;51.476;7.552;2023-05-21T08:20:37;99825.13;;;17.97;100.00
68941;BME280;55982;51.476;7.552;2023-05-21T08:23:02;99821.63;;;18.52;100.00
68941;BME280;55982;51.476;7.552;2023-05-21T08:25:28;99822.50;;;18.65;100.00
68941;BME280;55982;51.476;7.552;2023-05-21T08:27:54;99821.50;;;18.12;100.00
68941;BME280;55982;51.476;7.552;2023-05-21T08:30:20;99819.25;;;18.74;100.00
68941;BME280;55982;51.476;7.552;2023-05-21T08:32:46;99823.47;;;17.68;100.00
68941;BME280;55982;51.476;7.552;2023-05-21T08:35:11;99824.28;;;18.38;100.00
68941;BME280;55982;51.476;7.552;2023-05-21T08:37:37;99835.91;;;18.76;100.00
68941;BME280;55982;51.476;7.552;2023-05-21T08:40:03;99834.59;;;17.73;100.00
68941;BME280;55982;51.476;7.552;2023-05-21T08:42:44;99834.81;;;17.84;100.00
68941;BME280;55982;51.476;7.552;2023-05-21T08:45:11;99829.84;;;18.06;100.00
68941;BME280;55982;51.476;7.552;2023-05-21T08:47:40;99836.63;;;18.24;100.00
68941;BME280;55982;51.476;7.552;2023-05-21T08:50:17;99833.25;;;18.08;100.00
68941;BME280;55982;51.476;7.552;2023-05-21T08:52:43;99827.94;;;18.08;100.00
68941;BME280;55982;51.476;7.552;2023-05-21T08:55:09;99828.75;;;19.03;100.00
68941;BME280;55982;51.476;7.552;2023-05-21T08:57:35;99823.69;;;19.25;100.00
68941;BME280;55982;51.476;7.552;2023-05-21T09:00:01;99824.41;;;19.27;100.00
68941;BME280;55982;51.476;7.552;2023-05-21T09:02:32;99823.00;;;18.84;100.00
68941;BME280;55982;51.476;7.552;2023-05-21T09:04:59;99822.56;;;18.37;100.00
68941;BME280;55982;51.476;7.552;2023-05-21T09:07:27;99825.28;;;18.76;100.00
68941;BME280;55982;51.476;7.552;2023-05-21T09:10:06;99813.69;;;19.16;100.00
68941;BME280;55982;51.476;7.552;2023-05-21T09:12:34;99812.81;;;18.90;100.00
68941;BME280;55982;51.476;7.552;2023-05-21T09:15:00;99807.63;;;18.50;100.00
68941;BME280;55982;51.476;7.552;2023-05-21T09:17:26;99805.47;;;18.69;100.00
68941;BME280;55982;51.476;7.552;2023-05-21T09:20:11;99804.22;;;18.48;100.00
68941;BME280;55982;51.476;7.552;2023-05-21T09:22:45;99811.41;;;19.74;100.00
68941;BME280;55982;51.476;7.552;2023-05-21T09:25:12;99797.84;;;19.41;100.00
68941;BME280;55982;51.476;7.552;2023-05-21T09:27:38;99804.69;;;20.18;100.00
68941;BME280;55982;51.476;7.552;2023-05-21T09:30:08;99804.50;;;21.37;100.00
68941;BME280;55982;51.476;7.552;2023-05-21T09:32:35;99806.69;;;21.54;100.00
68941;BME280;55982;51.476;7.552;2023-05-21T09:35:07;99801.47;;;20.38;100.00
68941;BME280;55982;51.476;7.552;2023-05-21T09:37:41;99798.31;;;21.37;100.00
68941;BME280;55982;51.476;7.552;2023-05-21T09:40:13;99803.78;;;22.02;100.00
68941;BME280;55982;51.476;7.552;2023-05-21T09:42:43;99805.16;;;22.61;100.00
68941;BME280;55982;51.476;7.552;2023-05-21T09:45:10;99810.97;;;22.55;100.00
68941;BME280;55982;51.476;7.552;2023-05-21T09:47:42;99795.53;;;21.27;100.00
68941;BME280;55982;51.476;7.552;2023-05-21T09:50:12;99797.44;;;21.14;100.00
68941;BME280;55982;51.476;7.552;2023-05-21T09:52:38;99786.00;;;20.90;100.00
68941;BME280;55982;51.476;7.552;2023-05-21T09:55:10;99791.31;;;20.90;100.00
68941;BME280;55982;51.476;7.552;2023-05-21T09:57:48;99787.25;;;20.73;100.00
68941;BME280;55982;51.476;7.552;2023-05-21T10:00:21;99788.75;;;20.88;100.00
68941;BME280;55982;51.476;7.552;2023-05-21T10:02:48;99793.69;;;20.11;100.00
68941;BME280;55982;51.476;7.552;2023-05-21T10:05:15;99788.19;;;20.01;100.00
68941;BME280;55982;51.476;7.552;2023-05-21T10:07:46;99795.19;;;20.02;100.00
68941;BME280;55982;51.476;7.552;2023-05-21T10:10:13;99794.50;;;20.12;100.00
68941;BME280;55982;51.476;7.552;2023-05-21T10:12:42;99783.56;;;20.87;100.00
68941;BME280;55982;51.476;7.552;2023-05-21T10:15:13;99782.94;;;21.29;100.00
68941;BME280;55982;51.476;7.552;2023-05-21T10:17:39;99783.44;;;20.18;100.00
68941;BME280;55982;51.476;7.552;2023-05-21T10:20:06;99777.28;;;21.34;100.00
68941;BME280;55982;51.476;7.552;2023-05-21T10:22:33;99764.56;;;21.26;100.00
68941;BME280;55982;51.476;7.552;2023-05-21T10:25:00;99773.28;;;22.06;100.00
68941;BME280;55982;51.476;7.552;2023-05-21T10:27:28;99758.97;;;22.18;100.00
68941;BME280;55982;51.476;7.552;2023-05-21T10:29:56;99770.03;;;22.45;100.00
68941;BME280;55982;51.476;7.552;2023-05-21T10:32:25;99757.19;;;22.39;100.00
68941;BME280;55982;51.476;7.552;2023-05-21T10:34:52;99761.16;;;22.13;100.00
68941;BME280;55982;51.476;7.552;2023-05-21T10:37:22;99758.09;;;22.28;100.00
68941;BME280;55982;51.476;7.552;2023-05-21T10:39:47;99765.72;;;22.53;100.00
68941;BME280;55982;51.476;7.552;2023-05-21T10:45:08;99756.75;;;23.27;100.00
68941;BME280;55982;51.476;7.552;2023-05-21T10:50:43;99750.09;;;22.28;100.00
68941;BME280;55982;51.476;7.552;2023-05-21T10:54:19;99756.03;;;22.32;100.00
68941;BME280;55982;51.476;7.552;2023-05-21T10:56:37;99757.91;;;21.76;100.00
68941;BME280;55982;51.476;7.552;2023-05-21T11:01:51;99753.19;;;21.79;100.00
68941;BME280;55982;51.476;7.552;2023-05-21T11:04:29;99766.75;;;21.32;100.00
68941;BME280;55982;51.476;7.552;2023-05-21T11:06:57;99757.69;;;21.57;100.00
68941;BME280;55982;51.476;7.552;2023-05-21T11:09:22;99748.28;;;22.18;100.00
68941;BME280;55982;51.476;7.552;2023-05-21T11:11:52;99746.16;;;22.75;100.00
68941;BME280;55982;51.476;7.552;2023-05-21T11:14:36;99741.03;;;22.20;100.00
68941;BME280;55982;51.476;7.552;2023-05-21T11:17:36;99745.06;;;22.57;100.00
68941;BME280;55982;51.476;7.552;2023-05-21T11:20:07;99751.56;;;23.56;100.00
68941;BME280;55982;51.476;7.552;2023-05-21T11:22:34;99735.16;;;22.89;100.00
68941;BME280;55982;51.476;7.552;2023-05-21T11:25:01;99736.56;;;23.34;100.00
68941;BME280;55982;51.476;7.552;2023-05-21T11:29:56;99736.81;;;22.49;100.00
68941;BME280;55982;51.476;7.552;2023-05-21T11:32:22;99734.09;;;21.30;100.00
68941;BME280;55982;51.476;7.552;2023-05-21T11:34:48;99731.44;;;21.86;100.00
68941;BME280;55982;51.476;7.552;2023-05-21T11:39:43;99723.91;;;22.54;100.00
68941;BME280;55982;51.476;7.552;2023-05-21T11:42:08;99729.94;;;23.08;100.00
68941;BME280;55982;51.476;7.552;2023-05-21T11:44:45;99727.56;;;23.05;100.00
68941;BME280;55982;51.476;7.552;2023-05-21T11:47:12;99725.72;;;22.33;100.00
68941;BME280;55982;51.476;7.552;2023-05-21T11:49:39;99729.63;;;22.81;100.00
68941;BME280;55982;51.476;7.552;2023-05-21T11:52:06;99724.69;;;22.77;100.00
68941;BME280;55982;51.476;7.552;2023-05-21T11:54:32;99721.72;;;23.41;100.00
68941;BME280;55982;51.476;7.552;2023-05-21T11:57:01;99726.84;;;23.03;100.00
68941;BME280;55982;51.476;7.552;2023-05-21T11:59:27;99730.47;;;23.43;100.00
68941;BME280;55982;51.476;7.552;2023-05-21T12:01:53;99725.25;;;22.28;100.00
68941;BME280;55982;51.476;7.552;2023-05-21T12:04:19;99727.50;;;22.43;100.00
68941;BME280;55982;51.476;7.552;2023-05-21T12:06:44;99732.56;;;22.78;100.00
68941;BME280;55982;51.476;7.552;2023-05-21T12:09:10;99719.19;;;22.68;100.00
68941;BME280;55982;51.476;7.552;2023-05-21T12:11:40;99718.59;;;22.54;100.00
68941;BME280;55982;51.476;7.552;2023-05-21T12:14:08;99721.13;;;22.87;100.00
68941;BME280;55982;51.476;7.552;2023-05-21T12:16:34;99727.47;;;22.75;100.00
68941;BME280;55982;51.476;7.552;2023-05-21T12:19:00;99720.22;;;23.28;100.00
68941;BME280;55982;51.476;7.552;2023-05-21T12:21:27;99723.47;;;23.61;100.00
68941;BME280;55982;51.476;7.552;2023-05-21T12:23:54;99718.38;;;23.49;100.00
68941;BME280;55982;51.476;7.552;2023-05-21T12:26:19;99710.50;;;23.27;100.00
68941;BME280;55982;51.476;7.552;2023-05-21T12:28:46;99714.44;;;23.23;100.00
68941;BME280;55982;51.476;7.552;2023-05-21T12:31:15;99717.31;;;23.31;100.00
68941;BME280;55982;51.476;7.552;2023-05-21T12:33:43;99710.84;;;23.63;100.00
68941;BME280;55982;51.476;7.552;2023-05-21T12:36:20;99713.41;;;24.33;100.00
68941;BME280;55982;51.476;7.552;2023-05-21T12:38:46;99714.66;;;24.58;100.00
68941;BME280;55982;51.476;7.552;2023-05-21T12:41:12;99721.97;;;24.37;100.00
68941;BME280;55982;51.476;7.552;2023-05-21T12:43:37;99717.94;;;23.84;100.00
68941;BME280;55982;51.476;7.552;2023-05-21T12:46:03;99718.88;;;24.13;100.00
68941;BME280;55982;51.476;7.552;2023-05-21T12:48:28;99718.88;;;24.13;100.00
68941;BME280;55982;51.476;7.552;2023-05-21T12:50:54;99718.59;;;24.54;100.00
68941;BME280;55982;51.476;7.552;2023-05-21T12:53:19;99716.56;;;25.13;100.00
68941;BME280;55982;51.476;7.552;2023-05-21T12:55:45;99716.44;;;25.05;100.00
68941;BME280;55982;51.476;7.552;2023-05-21T12:58:12;99714.66;;;24.77;100.00
68941;BME280;55982;51.476;7.552;2023-05-21T13:00:40;99719.06;;;25.24;100.00
68941;BME280;55982;51.476;7.552;2023-05-21T13:03:06;99711.22;;;25.13;100.00
68941;BME280;55982;51.476;7.552;2023-05-21T13:05:31;99715.41;;;26.34;100.00
68941;BME280;55982;51.476;7.552;2023-05-21T13:07:57;99718.00;;;27.48;100.00